Time;durP1;ratioP1;P1;durP2;ratioP2;P2;SDS_P1;SDS_P2;PMS_P1;PMS_P2;Temp;Humidity;BMP_temperature;BMP_pressure;BME280_temperature;BME280_humidity;BME280_pressure;Samples;Min_cycle;Max_cycle;Signal;HPM_P1;HPM_P2
2021/09/20 00:00:42;;;;;;;1.60;1.50;;;14.70;81.50;;;;;;4997575;28;20103;-69
2021/09/20 00:03:07;;;;;;;1.73;1.63;;;14.70;81.50;;;;;;4994939;28;20049;-68
2021/09/20 00:05:33;;;;;;;1.80;1.70;;;14.80;81.60;;;;;;4998900;28;20045;-69
2021/09/20 00:07:59;;;;;;;1.77;1.67;;;14.80;81.60;;;;;;5018419;28;20044;-70
2021/09/20 00:10:24;;;;;;;1.65;1.55;;;14.80;81.50;;;;;;5003960;28;20044;-69
2021/09/20 00:12:50;;;;;;;1.40;1.30;;;14.80;81.40;;;;;;5002967;28;20034;-70
2021/09/20 00:15:16;;;;;;;1.90;1.80;;;14.80;81.30;;;;;;5001150;28;20027;-70
2021/09/20 00:17:41;;;;;;;2.15;2.05;;;14.90;81.30;;;;;;5002543;28;20129;-68
2021/09/20 00:20:09;;;;;;;1.65;1.58;;;14.90;81.30;;;;;;5001330;28;20069;-67
2021/09/20 00:22:36;;;;;;;2.47;1.73;;;14.90;81.30;;;;;;5002310;28;20128;-68
2021/09/20 00:25:02;;;;;;;2.03;1.92;;;14.90;81.30;;;;;;5003324;28;20062;-70
2021/09/20 00:27:28;;;;;;;2.15;2.05;;;14.90;81.30;;;;;;5000130;28;20556;-70
2021/09/20 00:29:53;;;;;;;2.33;2.22;;;14.90;81.40;;;;;;5003692;28;20065;-68
2021/09/20 00:32:19;;;;;;;2.13;2.03;;;14.90;81.40;;;;;;5001972;28;20049;-69
2021/09/20 00:34:45;;;;;;;2.70;2.50;;;14.90;81.30;;;;;;5001169;28;20497;-69
2021/09/20 00:37:11;;;;;;;2.20;2.05;;;14.90;81.30;;;;;;5002490;28;20034;-69
2021/09/20 00:39:38;;;;;;;2.45;2.35;;;14.80;81.30;;;;;;5003435;28;20038;-69
2021/09/20 00:42:05;;;;;;;2.60;2.35;;;14.80;81.40;;;;;;5000316;28;20053;-69
2021/09/20 00:44:31;;;;;;;2.20;2.10;;;14.80;81.50;;;;;;5001407;28;20035;-68
2021/09/20 00:46:57;;;;;;;2.45;2.35;;;14.80;81.50;;;;;;5002111;28;20053;-69
2021/09/20 00:49:22;;;;;;;2.20;2.10;;;14.90;81.60;;;;;;5003032;28;20088;-69
2021/09/20 00:51:48;;;;;;;2.40;2.30;;;14.90;81.50;;;;;;5000685;28;20519;-68
2021/09/20 00:54:13;;;;;;;2.50;2.30;;;14.90;81.50;;;;;;5002469;28;20085;-69
2021/09/20 00:56:40;;;;;;;2.35;2.25;;;14.90;81.50;;;;;;5017764;28;20593;-69
2021/09/20 00:59:06;;;;;;;2.35;2.25;;;14.90;81.40;;;;;;5000305;28;20089;-68
2021/09/20 01:01:33;;;;;;;2.85;2.60;;;14.90;81.50;;;;;;4998642;28;20041;-69
2021/09/20 01:03:59;;;;;;;2.75;2.50;;;14.90;81.40;;;;;;5003306;28;20501;-68
2021/09/20 01:06:24;;;;;;;2.50;2.40;;;14.90;81.50;;;;;;5002417;28;20056;-68
2021/09/20 01:08:50;;;;;;;2.53;2.42;;;14.90;81.40;;;;;;5002241;28;20061;-69
2021/09/20 01:11:16;;;;;;;2.97;2.78;;;14.90;81.30;;;;;;5018100;28;20088;-69
2021/09/20 01:13:42;;;;;;;3.55;2.83;;;14.90;81.30;;;;;;5000839;28;20043;-68
2021/09/20 01:16:08;;;;;;;2.78;2.58;;;14.90;81.30;;;;;;4998544;28;20121;-68
2021/09/20 01:18:33;;;;;;;2.88;2.67;;;14.90;81.30;;;;;;4999675;28;20038;-69
2021/09/20 01:20:59;;;;;;;3.15;2.90;;;14.90;81.10;;;;;;5002346;28;20034;-69
2021/09/20 01:23:25;;;;;;;3.08;2.78;;;14.90;81.20;;;;;;5001233;28;20052;-69
2021/09/20 01:25:51;;;;;;;2.63;2.53;;;14.80;81.20;;;;;;5002888;28;20572;-69
2021/09/20 01:28:16;;;;;;;3.20;3.00;;;14.80;81.40;;;;;;5001614;28;20133;-69
2021/09/20 01:30:42;;;;;;;3.05;2.85;;;14.80;81.60;;;;;;5001247;28;20034;-69
2021/09/20 01:33:08;;;;;;;3.67;3.38;;;14.80;81.70;;;;;;5000343;28;20038;-68
2021/09/20 01:35:34;;;;;;;3.75;3.08;;;14.80;81.90;;;;;;5002057;28;20030;-68
2021/09/20 01:38:00;;;;;;;3.90;3.60;;;14.80;81.90;;;;;;5019447;28;20033;-69
2021/09/20 01:40:27;;;;;;;3.35;3.15;;;14.70;81.90;;;;;;5000832;28;20480;-69
2021/09/20 01:42:52;;;;;;;4.78;2.85;;;14.80;81.90;;;;;;5002994;28;20035;-70
2021/09/20 01:45:18;;;;;;;3.88;3.58;;;14.80;82.00;;;;;;5001305;28;20030;-70
2021/09/20 01:47:44;;;;;;;3.92;3.53;;;14.80;82.00;;;;;;4996413;28;20057;-69
2021/09/20 01:50:11;;;;;;;3.25;3.05;;;14.80;81.90;;;;;;5000528;28;20038;-69
2021/09/20 01:52:38;;;;;;;3.10;2.90;;;14.80;82.00;;;;;;5000017;28;20105;-67
2021/09/20 01:55:06;;;;;;;3.83;3.53;;;14.90;82.10;;;;;;5001419;28;20031;-68
2021/09/20 01:57:32;;;;;;;3.72;3.45;;;14.80;82.00;;;;;;5002416;28;20061;-69
2021/09/20 01:59:58;;;;;;;3.78;3.38;;;14.90;82.00;;;;;;4999652;28;20037;-69
2021/09/20 02:02:23;;;;;;;3.85;3.55;;;14.90;82.00;;;;;;4997425;28;20045;-69
2021/09/20 02:04:49;;;;;;;3.65;3.40;;;14.90;81.90;;;;;;4999976;28;20513;-69
2021/09/20 02:07:14;;;;;;;4.40;3.50;;;14.90;81.90;;;;;;4999860;28;20034;-70
2021/09/20 02:09:40;;;;;;;3.40;3.20;;;14.90;81.90;;;;;;5002043;28;20036;-69
2021/09/20 02:12:06;;;;;;;4.55;3.28;;;14.90;81.90;;;;;;5003114;28;20034;-69
2021/09/20 02:14:32;;;;;;;3.65;3.35;;;14.90;81.70;;;;;;4997716;28;20128;-69
2021/09/20 02:16:57;;;;;;;3.75;3.45;;;15.00;81.70;;;;;;5007570;28;20030;-69
2021/09/20 02:19:23;;;;;;;4.45;3.58;;;14.90;81.70;;;;;;4997822;28;20038;-70
2021/09/20 02:21:49;;;;;;;3.80;3.50;;;15.00;81.70;;;;;;5000034;28;20452;-70
2021/09/20 02:24:14;;;;;;;3.70;3.35;;;14.90;81.70;;;;;;5000349;28;20053;-69
2021/09/20 02:26:40;;;;;;;3.58;3.38;;;14.90;81.80;;;;;;5003331;28;20034;-69
2021/09/20 02:29:06;;;;;;;3.60;3.40;;;14.90;81.80;;;;;;5001158;28;20038;-67
2021/09/20 02:31:31;;;;;;;3.38;3.08;;;14.90;81.90;;;;;;4999560;28;20058;-69
2021/09/20 02:33:58;;;;;;;3.80;3.50;;;14.90;81.90;;;;;;4999495;28;20103;-68
2021/09/20 02:36:23;;;;;;;3.67;3.38;;;14.90;82.00;;;;;;4999192;28;20523;-68
2021/09/20 02:38:49;;;;;;;4.78;4.13;;;14.90;82.00;;;;;;4999666;28;20038;-69
2021/09/20 02:41:15;;;;;;;4.65;3.80;;;14.90;82.00;;;;;;5001340;28;20030;-68
2021/09/20 02:43:41;;;;;;;3.97;3.67;;;14.90;82.00;;;;;;5004309;28;20034;-69
2021/09/20 02:46:07;;;;;;;4.60;4.13;;;14.80;81.90;;;;;;5000253;28;20057;-69
2021/09/20 02:48:33;;;;;;;4.20;3.90;;;14.90;82.00;;;;;;5004378;28;20119;-68
2021/09/20 02:50:59;;;;;;;3.80;3.50;;;14.80;82.00;;;;;;4999966;28;20121;-68
2021/09/20 02:53:25;;;;;;;4.10;3.72;;;14.80;82.00;;;;;;4999347;28;20029;-68
2021/09/20 02:55:50;;;;;;;3.85;3.55;;;14.80;82.20;;;;;;5000248;28;20035;-69
2021/09/20 02:58:16;;;;;;;3.72;3.42;;;14.80;82.20;;;;;;4999280;28;20120;-70
2021/09/20 03:00:42;;;;;;;4.38;4.03;;;14.80;82.20;;;;;;4997667;28;20069;-69
2021/09/20 03:03:07;;;;;;;4.57;4.03;;;14.90;82.40;;;;;;4998942;28;20034;-69
2021/09/20 03:05:35;;;;;;;4.40;4.00;;;14.90;82.20;;;;;;5002102;28;20038;-69
2021/09/20 03:08:00;;;;;;;6.32;4.25;;;14.90;82.10;;;;;;4998454;28;20045;-69
2021/09/20 03:10:26;;;;;;;4.88;4.25;;;14.90;82.00;;;;;;5012292;28;20045;-68
2021/09/20 03:12:52;;;;;;;4.65;4.25;;;14.90;82.10;;;;;;4998819;28;20872;-69
2021/09/20 03:15:17;;;;;;;5.40;4.90;;;14.90;82.10;;;;;;5001656;28;20515;-70
2021/09/20 03:17:43;;;;;;;4.55;4.25;;;14.90;82.20;;;;;;5001323;28;20034;-69
2021/09/20 03:20:09;;;;;;;4.72;4.38;;;14.90;82.20;;;;;;4997759;28;20041;-68
2021/09/20 03:22:36;;;;;;;4.55;4.15;;;14.90;82.20;;;;;;4998369;28;20030;-69
2021/09/20 03:25:03;;;;;;;4.40;3.97;;;14.90;82.10;;;;;;4998038;28;20469;-70
2021/09/20 03:27:29;;;;;;;5.10;4.70;;;14.90;82.20;;;;;;4999396;28;20034;-64
2021/09/20 03:29:54;;;;;;;4.55;4.15;;;14.90;82.00;;;;;;4998627;28;20045;-69
2021/09/20 03:32:20;;;;;;;5.03;4.60;;;14.90;82.00;;;;;;4996939;28;20042;-69
2021/09/20 03:34:46;;;;;;;5.18;4.53;;;14.90;82.10;;;;;;4998790;28;20091;-68
2021/09/20 03:37:11;;;;;;;5.28;4.78;;;14.90;82.20;;;;;;4999360;28;20034;-68
2021/09/20 03:39:37;;;;;;;5.03;4.63;;;14.90;82.30;;;;;;4996400;28;20035;-68
2021/09/20 03:42:03;;;;;;;6.78;4.97;;;14.90;82.20;;;;;;4996519;28;20978;-70
2021/09/20 03:44:28;;;;;;;5.07;4.68;;;15.00;82.30;;;;;;5001184;28;20099;-69
2021/09/20 03:46:54;;;;;;;5.43;4.93;;;15.00;82.20;;;;;;4998422;28;20449;-69
2021/09/20 03:49:19;;;;;;;6.47;5.47;;;15.00;82.10;;;;;;5001184;28;20108;-69
2021/09/20 03:51:45;;;;;;;5.55;5.05;;;15.00;82.00;;;;;;4999798;28;20165;-67
2021/09/20 03:54:10;;;;;;;5.90;5.30;;;15.00;82.00;;;;;;4995932;28;20412;-69
2021/09/20 03:56:36;;;;;;;6.20;5.05;;;15.00;81.90;;;;;;4998071;28;20045;-69
2021/09/20 03:59:02;;;;;;;5.53;5.03;;;15.10;82.00;;;;;;4996966;28;20107;-70
2021/09/20 04:01:27;;;;;;;5.15;4.65;;;15.00;82.00;;;;;;4996845;28;20037;-70
2021/09/20 04:03:53;;;;;;;6.80;5.10;;;15.00;82.00;;;;;;4996714;28;20058;-70
2021/09/20 04:06:19;;;;;;;5.88;5.32;;;15.00;82.00;;;;;;4997787;28;20050;-69
2021/09/20 04:08:44;;;;;;;5.68;5.15;;;15.10;82.00;;;;;;4996156;28;20053;-70
2021/09/20 04:11:10;;;;;;;5.93;5.43;;;15.10;82.00;;;;;;4994955;28;20042;-69
2021/09/20 04:13:35;;;;;;;6.68;5.47;;;15.10;82.00;;;;;;4996082;28;20101;-69
2021/09/20 04:16:02;;;;;;;5.65;5.15;;;15.20;82.00;;;;;;5009972;28;20091;-67
2021/09/20 04:18:28;;;;;;;5.68;5.18;;;15.10;81.80;;;;;;4999430;28;20026;-69
2021/09/20 04:20:55;;;;;;;6.50;4.53;;;15.20;81.90;;;;;;5001502;28;20176;-69
2021/09/20 04:23:24;;;;;;;6.72;5.82;;;15.20;81.90;;;;;;4997261;28;20095;-70
2021/09/20 04:25:50;;;;;;;5.60;5.10;;;15.20;81.80;;;;;;5000604;28;20030;-69
2021/09/20 04:28:17;;;;;;;6.70;4.90;;;15.20;81.70;;;;;;4998396;28;20113;-69
2021/09/20 04:30:44;;;;;;;6.32;5.72;;;15.10;81.70;;;;;;4998045;28;20041;-70
2021/09/20 04:33:14;;;;;;;5.40;4.90;;;15.10;81.70;;;;;;4994936;28;20046;-70
2021/09/20 04:35:41;;;;;;;5.28;4.85;;;15.20;81.80;;;;;;4993835;28;20066;-69
2021/09/20 04:38:08;;;;;;;5.70;5.20;;;15.20;81.70;;;;;;4997995;28;20102;-68
2021/09/20 04:40:34;;;;;;;26.85;18.88;;;15.20;81.70;;;;;;5000188;28;20053;-69
2021/09/20 04:43:01;;;;;;;16.42;12.80;;;15.20;81.60;;;;;;4996924;28;20912;-68
2021/09/20 04:45:26;;;;;;;7.45;6.75;;;15.20;81.60;;;;;;4998290;28;20134;-69
2021/09/20 04:47:53;;;;;;;5.95;5.45;;;15.20;81.60;;;;;;4999166;28;20106;-69
2021/09/20 04:50:18;;;;;;;6.55;5.82;;;15.20;81.50;;;;;;4997004;28;20046;-69
2021/09/20 04:52:44;;;;;;;6.80;6.20;;;15.20;81.60;;;;;;5002484;28;20052;-69
2021/09/20 04:55:09;;;;;;;5.82;5.35;;;15.20;81.70;;;;;;5002659;28;20030;-69
2021/09/20 04:57:36;;;;;;;8.07;5.10;;;15.20;81.60;;;;;;5002490;28;20081;-69
2021/09/20 05:00:03;;;;;;;6.90;5.82;;;15.20;81.60;;;;;;5003627;28;20096;-69
2021/09/20 05:02:28;;;;;;;5.95;5.35;;;15.20;81.60;;;;;;5001931;28;20097;-69
2021/09/20 05:04:54;;;;;;;5.82;5.32;;;15.20;81.70;;;;;;5001961;28;20497;-69
2021/09/20 05:07:20;;;;;;;6.05;5.53;;;15.10;81.60;;;;;;4999531;28;20494;-69
2021/09/20 05:09:45;;;;;;;7.15;5.45;;;15.20;81.70;;;;;;5002339;28;20037;-69
2021/09/20 05:12:11;;;;;;;6.68;6.07;;;15.20;81.80;;;;;;5002461;28;20034;-69
2021/09/20 05:14:36;;;;;;;8.32;6.10;;;15.20;81.80;;;;;;5001433;28;20029;-69
2021/09/20 05:17:04;;;;;;;6.47;5.72;;;15.20;81.80;;;;;;5003112;28;20042;-69
2021/09/20 05:19:29;;;;;;;7.00;6.40;;;15.20;81.70;;;;;;5003681;28;20496;-69
2021/09/20 05:21:55;;;;;;;6.68;5.97;;;15.10;81.50;;;;;;5001936;28;20037;-70
2021/09/20 05:24:21;;;;;;;6.43;5.78;;;15.20;81.50;;;;;;5007176;28;20033;-70
2021/09/20 05:26:47;;;;;;;5.97;5.47;;;15.20;81.50;;;;;;5001610;28;20045;-69
2021/09/20 05:29:12;;;;;;;6.13;5.57;;;15.20;81.50;;;;;;5002256;28;20053;-69
2021/09/20 05:31:38;;;;;;;7.40;5.97;;;15.20;81.50;;;;;;5002284;28;20056;-69
2021/09/20 05:34:03;;;;;;;6.30;5.75;;;15.20;81.50;;;;;;5001656;28;20046;-68
2021/09/20 05:36:29;;;;;;;7.75;6.18;;;15.10;81.50;;;;;;5001468;28;20088;-69
2021/09/20 05:38:55;;;;;;;6.88;6.10;;;15.20;81.70;;;;;;5001266;28;20369;-70
2021/09/20 05:41:20;;;;;;;7.80;6.50;;;15.10;81.50;;;;;;5001879;28;20113;-70
2021/09/20 05:43:46;;;;;;;7.18;5.95;;;15.10;81.60;;;;;;5000966;28;20037;-68
2021/09/20 05:46:11;;;;;;;7.72;6.35;;;15.10;81.60;;;;;;4998912;28;20034;-69
2021/09/20 05:48:39;;;;;;;10.98;6.32;;;15.10;81.70;;;;;;5015874;28;20722;-68
2021/09/20 05:51:04;;;;;;;6.97;6.28;;;15.10;81.80;;;;;;5001122;28;20078;-69
2021/09/20 05:53:30;;;;;;;7.18;6.53;;;15.10;81.90;;;;;;4999647;28;20056;-69
2021/09/20 05:55:56;;;;;;;7.00;5.65;;;15.10;82.00;;;;;;5000676;28;20118;-68
2021/09/20 05:58:21;;;;;;;7.60;6.55;;;15.00;82.00;;;;;;5000429;28;20422;-68
2021/09/20 06:00:47;;;;;;;7.30;6.60;;;15.00;82.10;;;;;;5002183;28;20034;-69
2021/09/20 06:03:13;;;;;;;7.53;6.82;;;15.10;82.20;;;;;;5001614;28;20084;-69
2021/09/20 06:05:39;;;;;;;6.93;6.22;;;15.10;82.30;;;;;;5001979;28;20073;-68
2021/09/20 06:08:06;;;;;;;7.82;7.00;;;15.10;82.40;;;;;;5003248;28;20038;-69
2021/09/20 06:10:33;;;;;;;7.45;6.30;;;15.10;82.40;;;;;;5002887;28;20490;-69
2021/09/20 06:12:59;;;;;;;8.27;6.63;;;15.10;82.40;;;;;;5002496;28;20109;-68
2021/09/20 06:15:24;;;;;;;7.55;6.82;;;15.20;82.40;;;;;;5002630;28;20122;-69
2021/09/20 06:17:50;;;;;;;9.55;7.18;;;15.20;82.30;;;;;;5002843;28;21681;-69
2021/09/20 06:20:15;;;;;;;7.80;7.00;;;15.20;82.30;;;;;;5001156;28;20101;-69
2021/09/20 06:22:41;;;;;;;7.55;6.85;;;15.30;82.20;;;;;;5002172;28;21241;-66
2021/09/20 06:25:09;;;;;;;6.90;6.30;;;15.20;82.10;;;;;;5001592;28;20104;-69
2021/09/20 06:27:35;;;;;;;7.80;7.05;;;15.20;82.00;;;;;;5001636;28;20126;-68
2021/09/20 06:30:03;;;;;;;7.13;6.53;;;15.20;82.00;;;;;;5000191;28;20039;-68
2021/09/20 06:32:28;;;;;;;7.35;6.68;;;15.20;82.00;;;;;;4998707;28;20497;-68
2021/09/20 06:34:54;;;;;;;6.88;6.25;;;15.20;81.90;;;;;;4999484;28;20034;-68
2021/09/20 06:37:20;;;;;;;7.50;6.70;;;15.20;82.00;;;;;;5000373;28;20114;-68
2021/09/20 06:39:46;;;;;;;8.75;7.57;;;15.20;82.10;;;;;;5001117;28;20065;-69
2021/09/20 06:42:11;;;;;;;7.85;7.05;;;15.20;82.20;;;;;;5001626;28;20194;-69
2021/09/20 06:44:37;;;;;;;8.07;6.78;;;15.20;82.20;;;;;;5000944;28;20120;-69
2021/09/20 06:47:03;;;;;;;7.55;6.85;;;15.30;82.20;;;;;;5000939;28;20042;-69
2021/09/20 06:49:29;;;;;;;7.22;6.53;;;15.30;82.10;;;;;;5000315;28;20040;-69
2021/09/20 06:51:54;;;;;;;7.88;7.03;;;15.30;82.20;;;;;;5000003;28;20122;-68
2021/09/20 06:54:21;;;;;;;7.60;6.80;;;15.30;82.10;;;;;;5000474;28;20035;-68
2021/09/20 06:56:47;;;;;;;7.50;6.70;;;15.30;82.10;;;;;;5000566;28;20038;-68
2021/09/20 06:59:13;;;;;;;8.88;7.32;;;15.40;82.20;;;;;;5001591;28;20038;-66
2021/09/20 07:01:39;;;;;;;9.57;7.00;;;15.30;82.30;;;;;;4997790;28;20048;-69
2021/09/20 07:04:04;;;;;;;9.18;7.05;;;15.40;82.30;;;;;;4995955;28;20034;-69
2021/09/20 07:06:30;;;;;;;7.95;7.15;;;15.40;82.40;;;;;;4998487;28;20038;-69
2021/09/20 07:08:56;;;;;;;8.27;7.45;;;15.40;82.40;;;;;;4999848;28;20033;-69
2021/09/20 07:11:22;;;;;;;8.23;7.35;;;15.40;82.40;;;;;;5000635;28;20045;-68
2021/09/20 07:13:48;;;;;;;9.40;6.90;;;15.50;82.50;;;;;;4999715;28;20038;-68
2021/09/20 07:16:14;;;;;;;8.30;7.50;;;15.50;82.40;;;;;;4999499;28;20500;-69
2021/09/20 07:18:39;;;;;;;7.55;6.75;;;15.50;82.40;;;;;;5000458;28;20026;-69
2021/09/20 07:21:05;;;;;;;7.55;6.85;;;15.50;82.30;;;;;;5000907;28;20033;-69
2021/09/20 07:23:31;;;;;;;9.23;6.90;;;15.50;83.10;;;;;;5000743;28;20057;-69
2021/09/20 07:25:57;;;;;;;8.85;7.30;;;15.50;82.20;;;;;;5000241;28;20038;-69
2021/09/20 07:28:22;;;;;;;9.32;7.38;;;15.60;82.20;;;;;;5005148;28;20457;-69
2021/09/20 07:30:48;;;;;;;10.38;7.60;;;15.60;82.10;;;;;;5001229;28;20042;-69
2021/09/20 07:33:14;;;;;;;8.52;7.63;;;15.60;82.10;;;;;;5013739;28;20040;-69
2021/09/20 07:35:41;;;;;;;8.27;7.38;;;15.60;82.10;;;;;;5000368;28;20583;-69
2021/09/20 07:38:08;;;;;;;9.65;7.47;;;15.60;82.00;;;;;;5000861;28;20131;-68
2021/09/20 07:40:34;;;;;;;9.18;7.68;;;15.60;83.00;;;;;;4999538;28;20484;-68
2021/09/20 07:43:00;;;;;;;8.35;7.55;;;15.70;82.40;;;;;;4999931;28;20452;-68
2021/09/20 07:45:27;;;;;;;8.50;7.63;;;15.70;82.40;;;;;;5000873;28;20030;-68
2021/09/20 07:47:53;;;;;;;8.73;7.75;;;15.70;82.40;;;;;;5003639;28;20034;-68
2021/09/20 07:50:19;;;;;;;9.57;8.30;;;15.70;82.40;;;;;;5001096;28;20038;-69
2021/09/20 07:52:46;;;;;;;10.40;8.52;;;15.80;82.30;;;;;;4999285;28;20037;-70
2021/09/20 07:55:13;;;;;;;11.52;8.77;;;15.80;82.20;;;;;;5005214;28;20030;-69
2021/09/20 07:57:39;;;;;;;9.48;8.38;;;15.80;82.20;;;;;;5000451;28;20085;-68
2021/09/20 08:00:07;;;;;;;10.65;8.93;;;15.90;82.20;;;;;;5000916;28;20042;-68
2021/09/20 08:02:33;;;;;;;11.02;8.40;;;15.90;81.90;;;;;;4998485;28;20065;-69
2021/09/20 08:04:58;;;;;;;13.18;8.82;;;15.90;82.00;;;;;;5001410;28;20050;-68
2021/09/20 08:07:24;;;;;;;11.13;8.88;;;16.00;82.20;;;;;;4999895;28;20030;-69
2021/09/20 08:09:50;;;;;;;12.25;8.93;;;16.00;82.10;;;;;;5003136;28;20030;-69
2021/09/20 08:12:15;;;;;;;12.88;9.45;;;16.00;82.00;;;;;;4999416;28;20042;-69
2021/09/20 08:14:41;;;;;;;11.85;8.90;;;16.10;81.80;;;;;;5000276;28;20109;-69
2021/09/20 08:17:08;;;;;;;12.07;9.80;;;16.10;81.70;;;;;;5000556;28;20398;-69
2021/09/20 08:19:34;;;;;;;11.13;9.45;;;16.20;81.90;;;;;;5000752;28;20034;-69
2021/09/20 08:22:00;;;;;;;11.90;9.38;;;16.20;81.90;;;;;;5000787;28;20037;-70
2021/09/20 08:24:26;;;;;;;12.68;9.82;;;16.20;81.60;;;;;;4995741;28;20034;-67
2021/09/20 08:26:52;;;;;;;11.00;9.40;;;16.30;81.30;;;;;;5001701;28;20512;-69
2021/09/20 08:29:17;;;;;;;14.50;9.80;;;16.30;81.20;;;;;;4999891;28;20030;-70
2021/09/20 08:31:43;;;;;;;13.43;10.32;;;16.30;81.10;;;;;;5002172;28;20468;-69
2021/09/20 08:34:09;;;;;;;12.07;9.60;;;16.30;81.10;;;;;;5007821;28;20092;-70
2021/09/20 08:36:34;;;;;;;14.30;9.48;;;16.40;81.20;;;;;;5002565;28;20528;-69
2021/09/20 08:39:01;;;;;;;12.73;9.82;;;16.40;81.30;;;;;;5002825;28;20046;-69
2021/09/20 08:41:27;;;;;;;12.85;10.48;;;16.50;81.20;;;;;;5004160;28;20041;-69
2021/09/20 08:43:52;;;;;;;13.45;9.90;;;16.50;80.90;;;;;;5002120;28;20042;-69
2021/09/20 08:46:18;;;;;;;11.32;9.30;;;16.60;80.80;;;;;;5002565;28;20065;-70
2021/09/20 08:48:46;;;;;;;12.07;9.70;;;16.60;81.00;;;;;;5016835;28;20100;-69
2021/09/20 08:51:13;;;;;;;12.63;9.77;;;16.60;80.70;;;;;;5002694;28;20037;-70
2021/09/20 08:53:40;;;;;;;11.98;9.45;;;16.70;80.50;;;;;;5003872;28;20034;-69
2021/09/20 08:56:06;;;;;;;11.63;9.15;;;16.70;80.30;;;;;;5002752;28;20066;-70
2021/09/20 08:58:32;;;;;;;11.80;9.45;;;16.70;80.40;;;;;;5003197;28;20070;-70
2021/09/20 09:00:59;;;;;;;11.57;8.95;;;16.80;80.40;;;;;;5003071;28;20030;-69
2021/09/20 09:03:27;;;;;;;12.23;9.48;;;16.80;80.30;;;;;;5002078;28;20045;-69
2021/09/20 09:05:53;;;;;;;13.07;8.60;;;16.80;80.00;;;;;;5006432;28;20598;-69
2021/09/20 09:08:22;;;;;;;12.20;9.32;;;16.90;79.70;;;;;;5002231;28;20034;-69
2021/09/20 09:11:16;;;;;;;10.57;8.73;;;16.90;79.80;;;;;;5004830;28;20079;-69
2021/09/20 09:13:44;;;;;;;14.40;8.75;;;17.00;79.30;;;;;;5002365;28;20132;-69
2021/09/20 09:16:21;;;;;;;11.60;8.38;;;17.00;79.20;;;;;;5003195;28;20031;-69
2021/09/20 09:19:22;;;;;;;9.35;7.75;;;17.10;78.90;;;;;;5001488;28;20084;-69
2021/09/20 09:21:48;;;;;;;9.20;7.45;;;17.10;78.70;;;;;;4947540;28;20046;-69
2021/09/20 09:24:16;;;;;;;11.40;7.65;;;17.10;78.60;;;;;;4990612;28;20030;-69
2021/09/20 09:26:55;;;;;;;10.93;8.00;;;17.10;78.20;;;;;;5016490;28;20053;-69
2021/09/20 09:29:21;;;;;;;9.35;6.97;;;17.20;77.90;;;;;;5002937;28;20041;-69
2021/09/20 09:31:55;;;;;;;10.80;8.25;;;17.20;78.10;;;;;;5001990;28;20046;-70
2021/09/20 09:34:24;;;;;;;10.40;7.43;;;17.30;78.00;;;;;;5001981;28;20517;-69
2021/09/20 09:36:51;;;;;;;8.10;7.20;;;17.30;78.40;;;;;;5000461;28;20038;-70
2021/09/20 09:39:30;;;;;;;10.25;7.70;;;17.30;77.10;;;;;;5000580;28;20505;-69
2021/09/20 09:41:56;;;;;;;10.38;7.38;;;17.40;76.50;;;;;;5000925;28;20112;-69
2021/09/20 09:44:33;;;;;;;8.65;7.40;;;17.40;76.90;;;;;;5001224;28;20045;-69
2021/09/20 09:46:59;;;;;;;9.98;7.20;;;17.40;76.50;;;;;;5002390;28;20041;-69
2021/09/20 09:49:28;;;;;;;9.20;7.55;;;17.40;76.60;;;;;;5003053;28;20041;-70
2021/09/20 09:52:20;;;;;;;8.93;6.97;;;17.40;76.60;;;;;;5002706;28;20030;-69
2021/09/20 09:54:46;;;;;;;7.90;6.45;;;17.40;76.10;;;;;;5002801;28;20042;-70
2021/09/20 09:57:38;;;;;;;10.30;7.80;;;17.50;76.30;;;;;;5001444;28;20030;-69
2021/09/20 10:00:08;;;;;;;8.85;6.50;;;17.40;75.70;;;;;;4995932;28;20412;-69
2021/09/20 10:02:36;;;;;;;7.15;6.03;;;17.50;76.10;;;;;;4998748;28;20444;-68
2021/09/20 10:05:08;;;;;;;8.55;6.20;;;17.50;75.90;;;;;;4998907;28;20500;-68
2021/09/20 10:07:37;;;;;;;7.15;5.68;;;17.50;75.50;;;;;;5001266;28;20508;-66
2021/09/20 10:10:06;;;;;;;8.48;6.35;;;17.60;75.70;;;;;;5000595;28;20049;-69
2021/09/20 10:12:33;;;;;;;8.93;5.65;;;17.60;75.60;;;;;;5002265;28;20037;-69
2021/09/20 10:15:00;;;;;;;9.52;6.72;;;17.70;75.90;;;;;;5003978;28;20353;-69
2021/09/20 10:17:27;;;;;;;7.70;6.18;;;17.70;75.30;;;;;;5003002;28;20497;-68
2021/09/20 10:19:54;;;;;;;8.55;6.15;;;17.80;75.30;;;;;;5003908;28;20671;-69
2021/09/20 10:22:20;;;;;;;7.25;6.00;;;17.80;75.20;;;;;;5000952;28;20026;-69
2021/09/20 10:24:48;;;;;;;8.23;6.38;;;17.90;74.80;;;;;;5001630;28;20050;-69
2021/09/20 10:27:16;;;;;;;7.68;6.10;;;17.90;74.20;;;;;;5001539;28;20073;-70
2021/09/20 10:29:46;;;;;;;7.00;5.57;;;17.90;74.00;;;;;;5000975;28;20493;-69
2021/09/20 10:32:13;;;;;;;7.30;5.65;;;18.00;74.00;;;;;;5000064;28;20089;-70
2021/09/20 10:34:39;;;;;;;7.22;5.90;;;18.00;74.10;;;;;;5002160;28;20452;-69
2021/09/20 10:37:12;;;;;;;7.40;5.72;;;18.00;73.90;;;;;;5001594;28;20058;-69
2021/09/20 10:39:44;;;;;;;8.05;6.30;;;18.00;73.70;;;;;;5000978;28;20037;-69
2021/09/20 10:42:11;;;;;;;7.53;6.05;;;18.10;72.90;;;;;;5003544;28;20033;-69
2021/09/20 10:44:41;;;;;;;6.78;5.53;;;18.10;73.50;;;;;;5000870;28;20468;-69
2021/09/20 10:47:15;;;;;;;6.63;5.05;;;18.10;73.00;;;;;;4999842;28;20043;-69
2021/09/20 10:49:49;;;;;;;7.33;5.47;;;18.20;73.00;;;;;;5000614;28;20037;-70
2021/09/20 10:52:15;;;;;;;6.28;5.40;;;18.20;72.20;;;;;;5000036;28;20508;-68
2021/09/20 10:55:08;;;;;;;8.07;6.10;;;18.20;72.50;;;;;;4998938;28;20116;-68
2021/09/20 10:57:35;;;;;;;7.45;5.57;;;18.20;69.70;;;;;;5002048;28;20031;-69
2021/09/20 11:00:23;;;;;;;6.07;5.28;;;18.20;70.70;;;;;;5000387;28;20040;-68
2021/09/20 11:02:50;;;;;;;8.15;5.93;;;18.20;70.70;;;;;;4998867;28;20035;-69
2021/09/20 11:05:16;;;;;;;8.02;5.90;;;18.20;71.70;;;;;;4999940;28;20080;-69
2021/09/20 11:07:47;;;;;;;6.22;5.40;;;18.20;71.80;;;;;;5000606;28;20440;-68
2021/09/20 11:10:14;;;;;;;6.88;5.97;;;18.30;70.80;;;;;;5001596;28;20038;-68
2021/09/20 11:12:59;;;;;;;8.30;6.18;;;18.30;71.40;;;;;;5000389;28;20497;-69
2021/09/20 11:15:25;;;;;;;;;;;18.30;70.90;;;;;;5002137;28;20559;-69
2021/09/20 11:17:52;;;;;;;5.60;4.47;;;18.30;72.00;;;;;;5001524;28;19921;-69
2021/09/20 11:20:25;;;;;;;7.85;5.22;;;18.40;71.80;;;;;;5000551;28;20042;-69
2021/09/20 11:23:21;;;;;;;5.18;4.60;;;18.40;71.30;;;;;;4999360;28;20030;-69
2021/09/20 11:26:05;;;;;;;5.47;4.97;;;18.40;70.50;;;;;;5002044;28;20511;-69
2021/09/20 11:28:35;;;;;;;5.07;4.35;;;18.50;70.40;;;;;;5004299;28;20115;-68
2021/09/20 11:31:00;;;;;;;5.15;4.47;;;18.40;70.70;;;;;;4999896;28;20085;-69
2021/09/20 11:33:37;;;;;;;6.45;4.40;;;18.50;70.70;;;;;;5003016;28;20045;-69
2021/09/20 11:36:22;;;;;;;5.65;4.30;;;18.50;69.90;;;;;;5000331;28;20129;-66
2021/09/20 11:38:49;;;;;;;4.88;4.45;;;18.50;69.80;;;;;;5002328;28;20038;-69
2021/09/20 11:41:23;;;;;;;5.60;4.75;;;18.50;70.30;;;;;;4999312;28;20034;-69
2021/09/20 11:43:51;;;;;;;4.75;4.25;;;18.60;69.70;;;;;;5000276;28;20038;-69
2021/09/20 11:46:21;;;;;;;5.40;4.10;;;18.50;71.00;;;;;;5003443;28;20254;-69
2021/09/20 11:48:47;;;;;;;5.18;4.68;;;18.50;69.80;;;;;;5002090;28;20042;-67
2021/09/20 11:51:13;;;;;;;5.18;4.57;;;18.60;70.30;;;;;;5002610;28;20076;-67
2021/09/20 11:53:39;;;;;;;5.45;4.22;;;18.60;71.10;;;;;;4999739;28;20058;-69
2021/09/20 11:56:05;;;;;;;6.22;4.65;;;18.60;70.00;;;;;;4997698;28;20529;-68
2021/09/20 11:58:30;;;;;;;4.93;4.43;;;18.70;69.60;;;;;;4999371;28;20034;-69
2021/09/20 12:00:56;;;;;;;5.05;4.55;;;18.70;69.50;;;;;;4997156;28;20493;-69
2021/09/20 12:03:25;;;;;;;4.82;4.43;;;18.70;69.50;;;;;;4997201;28;20038;-69
2021/09/20 12:05:51;;;;;;;5.95;4.60;;;18.80;69.50;;;;;;4999747;28;20026;-69
2021/09/20 12:08:24;;;;;;;5.07;4.57;;;18.80;69.10;;;;;;4999405;28;20065;-70
2021/09/20 12:10:55;;;;;;;6.25;4.75;;;18.80;69.40;;;;;;4999572;28;20050;-69
2021/09/20 12:13:27;;;;;;;5.15;4.35;;;18.80;67.30;;;;;;4999887;28;20050;-69
2021/09/20 12:15:55;;;;;;;5.45;4.57;;;18.80;67.30;;;;;;5014272;28;20125;-69
2021/09/20 12:18:30;;;;;;;4.85;4.35;;;18.80;67.00;;;;;;4998807;28;20041;-69
2021/09/20 12:20:57;;;;;;;;;;;18.70;65.80;;;;;;4998600;28;20061;-69
2021/09/20 12:23:26;;;;;;;8.30;4.45;;;18.70;66.60;;;;;;5014504;28;20209;-70
2021/09/20 12:26:00;;;;;;;5.53;4.30;;;18.60;67.30;;;;;;4998933;28;20038;-69
2021/09/20 12:28:30;;;;;;;5.85;4.50;;;18.60;67.50;;;;;;5013248;28;20057;-69
2021/09/20 12:31:23;;;;;;;6.03;5.43;;;18.60;68.40;;;;;;5000204;28;20038;-69
2021/09/20 12:34:12;;;;;;;6.25;5.65;;;18.60;66.80;;;;;;4971833;28;20038;-69
2021/09/20 12:36:40;;;;;;;5.40;4.90;;;18.70;66.90;;;;;;4998339;28;20026;-69
2021/09/20 12:39:27;;;;;;;6.03;5.28;;;18.70;67.60;;;;;;5002158;28;20040;-68
2021/09/20 12:41:57;;;;;;;5.63;5.00;;;18.70;67.30;;;;;;5002864;28;20111;-69
2021/09/20 12:44:39;;;;;;;6.47;5.32;;;18.70;67.60;;;;;;4998418;28;20587;-69
2021/09/20 12:47:12;;;;;;;6.55;5.53;;;18.70;65.30;;;;;;5001802;28;20128;-69